Terminal Aerodrome Forecast
Issued by NWS Los Angeles, CA

Home | Current Version | Previous Version | Text Only | Print | Product List | Glossary On
Versions: 1 2 3 4 5 6 7 8 9 10 11 12 13 14 15 16 17 18 19 20 21 22 23
796
FTUS46 KLOX 191743
TAFSMX
TAF
KSMX 191743Z 1918/2018 29008KT P6SM SCT250
     FM192000 31015KT P6SM SCT060 BKN150
     FM200100 30008KT P6SM BKN015 OVC100
     FM200900 31006KT P6SM -SHRA BKN025 OVC040
     FM201500 33010KT P6SM SCT025 BKN050=

USA.gov is the U.S. government's official web portal to all federal, state and local government web resources and services.